Coppermine, Canada
Current Conditions -  °F | °C
As of 6:00 AM on Friday 24 Oct 2014 (Local Time) from CYCO Reporting Station
Light Snow Light Snow  
Wind Chill:   Ceiling: 4200
Heat Index: 16°   Visibility: 5mi
Dew Point: 14°   Wind: 10mph
Humidity: 93%   Direction: 110°ESE
Pressure: 29.71"   Gusts: NA
Location:  67.83°N, 115.08°W
Report Text: CYCO 241200Z 11009KT 5SM -SN OVC042 M09/M10 A2971 RMK SC8 /S03/ SNOW COVER/MUCH LOOSE SLP063
Loading
Personal Weather Stations






























Interactive Weather Map New forecast layout! Learn more

10-Day Weather Forecast

Advertisements
Track Severe Weather on mobile